createdAt,value
2022-11-11T00:00:44.942Z,4.10
2022-11-11T00:03:33.374Z,3.83
2022-11-11T00:06:21.212Z,3.83
2022-11-11T00:09:08.695Z,3.40
2022-11-11T00:11:56.305Z,3.92
2022-11-11T00:14:43.814Z,3.53
2022-11-11T00:17:43.823Z,3.92
2022-11-11T00:20:44.909Z,3.40
2022-11-11T00:23:45.038Z,3.60
2022-11-11T00:26:39.517Z,4.28
2022-11-11T00:29:28.373Z,4.22
2022-11-11T00:32:31.256Z,4.45
2022-11-11T00:35:31.739Z,4.18
2022-11-11T00:38:32.089Z,4.18
2022-11-11T00:41:21.553Z,3.72
2022-11-11T00:44:10.054Z,3.60
2022-11-11T00:47:10.168Z,3.58
2022-11-11T00:50:11.196Z,4.18
2022-11-11T00:52:58.773Z,4.38
2022-11-11T00:55:46.349Z,4.15
2022-11-11T00:58:34.567Z,3.97
2022-11-11T01:01:22.647Z,4.10
2022-11-11T01:04:10.660Z,4.07
2022-11-11T01:06:58.832Z,3.88
2022-11-11T01:09:46.843Z,4.15
2022-11-11T01:12:35.133Z,4.75
2022-11-11T01:15:22.763Z,4.10
2022-11-11T01:18:11.620Z,4.07
2022-11-11T01:21:10.160Z,5.40
2022-11-11T01:23:58.235Z,4.18
2022-11-11T01:26:46.108Z,4.32
2022-11-11T01:29:34.366Z,5.43
2022-11-11T01:32:22.366Z,6.43
2022-11-11T01:35:10.362Z,7.13
2022-11-11T01:37:59.347Z,8.18
2022-11-11T01:40:48.666Z,6.22
2022-11-11T01:43:36.318Z,8.43
2022-11-11T01:46:24.628Z,8.48
2022-11-11T01:49:21.452Z,9.57
2022-11-11T01:52:12.118Z,8.30
2022-11-11T01:55:05.732Z,8.25
2022-11-11T01:57:56.785Z,8.93
2022-11-11T02:00:45.242Z,7.97
2022-11-11T02:03:34.752Z,8.57
2022-11-11T02:06:20.565Z,7.90
2022-11-11T02:09:08.921Z,9.05
2022-11-11T02:12:10.358Z,9.50
2022-11-11T02:15:00.422Z,9.23
2022-11-11T02:17:49.792Z,9.20
2022-11-11T02:20:38.966Z,9.70
2022-11-11T02:23:27.047Z,11.05
2022-11-11T02:26:17.114Z,10.48
2022-11-11T02:29:06.170Z,10.50
2022-11-11T02:31:54.118Z,11.38
2022-11-11T02:34:42.179Z,11.30
2022-11-11T02:37:30.636Z,13.00
2022-11-11T02:40:20.759Z,10.85
2022-11-11T02:43:09.064Z,10.23
2022-11-11T02:45:57.082Z,11.95
2022-11-11T02:48:45.005Z,10.63
2022-11-11T02:51:32.913Z,11.38
2022-11-11T02:54:20.584Z,11.55
2022-11-11T02:57:11.431Z,11.75
2022-11-11T03:00:01.408Z,11.27
2022-11-11T03:02:49.373Z,10.82
2022-11-11T03:05:37.890Z,10.88
2022-11-11T03:08:25.692Z,9.65
2022-11-11T03:11:13.790Z,10.65
2022-11-11T03:14:02.261Z,9.35
2022-11-11T03:17:03.464Z,8.95
2022-11-11T03:19:51.335Z,9.38
2022-11-11T03:22:54.911Z,9.27
2022-11-11T03:25:44.380Z,10.43
2022-11-11T03:28:32.033Z,8.80
2022-11-11T03:31:19.821Z,9.63
2022-11-11T03:34:20.656Z,9.45
2022-11-11T03:37:21.994Z,11.73
2022-11-11T03:40:10.232Z,10.98
2022-11-11T03:43:03.859Z,10.82
2022-11-11T03:45:52.731Z,10.85
2022-11-11T03:48:40.479Z,11.10
2022-11-11T03:51:28.126Z,11.77
2022-11-11T03:54:15.932Z,10.82
2022-11-11T03:57:16.286Z,10.88
2022-11-11T04:00:08.959Z,11.52
2022-11-11T04:03:27.595Z,10.93
2022-11-11T04:06:27.853Z,10.70
2022-11-11T04:09:28.032Z,11.05
2022-11-11T04:12:16.030Z,9.55
2022-11-11T04:15:15.821Z,9.48
2022-11-11T04:18:04.452Z,8.02
2022-11-11T04:21:04.867Z,7.88
2022-11-11T04:23:52.554Z,8.07
2022-11-11T04:26:37.626Z,6.53
2022-11-11T04:29:31.901Z,6.45
2022-11-11T04:32:33.196Z,6.68
2022-11-11T04:35:20.839Z,6.68
2022-11-11T04:38:32.879Z,5.80
2022-11-11T04:41:20.749Z,6.00
2022-11-11T04:44:20.868Z,6.03
2022-11-11T04:47:08.607Z,6.00
2022-11-11T04:49:56.543Z,6.07
2022-11-11T04:52:45.474Z,7.25
2022-11-11T04:55:45.920Z,6.05
2022-11-11T04:58:34.819Z,5.18
2022-11-11T05:04:36.899Z,6.65
2022-11-11T05:07:37.409Z,7.38
2022-11-11T05:10:25.342Z,7.25
2022-11-11T05:13:25.981Z,6.90
2022-11-11T05:16:32.941Z,6.63
2022-11-11T05:19:33.529Z,6.78
2022-11-11T05:22:26.224Z,6.85
2022-11-11T05:25:26.902Z,6.55
2022-11-11T05:28:14.638Z,6.25
2022-11-11T05:31:02.087Z,5.80
2022-11-11T05:33:50.088Z,6.78
2022-11-11T05:36:37.817Z,6.47
2022-11-11T05:39:25.406Z,6.13
2022-11-11T05:42:13.544Z,4.97
2022-11-11T05:45:01.508Z,7.00
2022-11-11T05:47:49.668Z,7.80
2022-11-11T05:50:41.293Z,6.43
2022-11-11T05:53:29.126Z,5.23
2022-11-11T05:56:16.693Z,6.43
2022-11-11T05:59:04.791Z,7.07
2022-11-11T06:01:53.810Z,4.88
2022-11-11T06:04:41.497Z,6.00
2022-11-11T06:07:29.016Z,5.63
2022-11-11T06:10:29.305Z,5.80
2022-11-11T06:13:17.036Z,6.40
2022-11-11T06:16:05.119Z,5.18
2022-11-11T06:18:53.469Z,5.80
2022-11-11T06:21:53.556Z,5.65
2022-11-11T06:24:41.351Z,4.78
2022-11-11T06:27:29.451Z,5.28
2022-11-11T06:30:45.976Z,6.40
2022-11-11T06:33:25.772Z,5.63
2022-11-11T06:36:14.952Z,6.38
2022-11-11T06:39:02.912Z,5.10
2022-11-11T06:41:50.804Z,5.97
2022-11-11T06:44:38.717Z,5.72
2022-11-11T06:47:26.254Z,5.75
2022-11-11T06:50:13.797Z,5.28
2022-11-11T06:53:08.883Z,4.97
2022-11-11T06:55:56.769Z,4.82
2022-11-11T06:58:45.690Z,4.93
2022-11-11T07:01:33.749Z,5.25
2022-11-11T07:04:21.935Z,5.45
2022-11-11T07:07:09.891Z,4.65
2022-11-11T07:09:58.362Z,4.88
2022-11-11T07:12:46.538Z,4.63
2022-11-11T07:15:34.550Z,4.97
2022-11-11T07:18:22.242Z,4.90
2022-11-11T07:21:10.188Z,4.72
2022-11-11T07:23:58.464Z,4.35
2022-11-11T07:26:46.196Z,4.82
2022-11-11T07:29:34.208Z,4.63
2022-11-11T07:32:21.798Z,5.07
2022-11-11T07:35:10.173Z,4.63
2022-11-11T07:37:57.864Z,5.00
2022-11-11T07:40:45.404Z,5.18
2022-11-11T07:43:33.063Z,4.50
2022-11-11T07:46:20.725Z,4.78
2022-11-11T07:49:08.426Z,4.13
2022-11-11T07:51:56.009Z,4.22
2022-11-11T07:54:43.677Z,4.68
2022-11-11T07:57:31.535Z,4.53
2022-11-11T08:00:21.852Z,4.72
2022-11-11T08:03:10.280Z,4.10
2022-11-11T08:05:58.751Z,4.53
2022-11-11T08:08:46.471Z,4.20
2022-11-11T08:11:46.687Z,4.20
2022-11-11T08:14:34.488Z,3.80
2022-11-11T08:17:22.121Z,4.40
2022-11-11T08:20:10.575Z,5.55
2022-11-11T08:23:38.239Z,3.97
2022-11-11T08:26:09.586Z,4.07
2022-11-11T08:28:57.176Z,4.80
2022-11-11T08:31:44.853Z,4.30
2022-11-11T08:34:32.507Z,3.92
2022-11-11T08:37:19.997Z,3.97
2022-11-11T08:40:07.909Z,4.07
2022-11-11T08:42:59.022Z,4.10
2022-11-11T08:45:47.257Z,3.78
2022-11-11T08:48:35.461Z,3.72
2022-11-11T08:51:25.936Z,3.72
2022-11-11T08:54:13.840Z,4.55
2022-11-11T08:57:01.536Z,3.50
2022-11-11T08:59:50.634Z,3.75
2022-11-11T09:02:38.926Z,3.80
2022-11-11T09:05:26.806Z,3.78
2022-11-11T09:08:14.986Z,4.13
2022-11-11T09:11:02.740Z,4.10
2022-11-11T09:13:50.749Z,3.63
2022-11-11T09:16:38.685Z,4.28
2022-11-11T09:19:26.363Z,3.78
2022-11-11T09:22:14.056Z,3.80
2022-11-11T09:25:01.720Z,3.83
2022-11-11T09:28:02.592Z,4.07
2022-11-11T09:30:50.301Z,3.47
2022-11-11T09:33:40.395Z,3.58
2022-11-11T09:36:29.250Z,3.13
2022-11-11T09:39:16.955Z,3.40
2022-11-11T09:42:23.264Z,3.40
2022-11-11T09:45:26.032Z,3.47
2022-11-11T09:48:37.121Z,3.65
2022-11-11T09:51:31.010Z,3.00
2022-11-11T09:54:23.106Z,3.08
2022-11-11T09:57:17.161Z,3.40
2022-11-11T10:00:07.290Z,3.00
2022-11-11T10:03:00.419Z,2.97
2022-11-11T10:05:55.019Z,3.05
2022-11-11T10:08:46.012Z,3.15
2022-11-11T10:11:39.770Z,2.78
2022-11-11T10:14:31.136Z,3.10
2022-11-11T10:17:28.866Z,2.80
2022-11-11T10:20:22.883Z,2.42
2022-11-11T10:23:11.045Z,3.00
2022-11-11T10:25:59.809Z,3.00
2022-11-11T10:28:48.021Z,3.40
2022-11-11T10:31:35.809Z,3.35
2022-11-11T10:34:24.043Z,3.17
2022-11-11T10:37:19.644Z,3.38
2022-11-11T10:40:16.321Z,3.00
2022-11-11T10:43:04.115Z,3.08
2022-11-11T10:45:58.232Z,2.95
2022-11-11T10:48:49.920Z,3.22
2022-11-11T10:51:41.361Z,3.60
2022-11-11T10:54:39.555Z,3.08
2022-11-11T10:57:39.621Z,3.03
2022-11-11T11:00:27.558Z,3.00
2022-11-11T11:03:47.990Z,3.53
2022-11-11T11:06:39.991Z,3.40
2022-11-11T11:09:45.505Z,2.78
2022-11-11T11:12:38.244Z,3.15
2022-11-11T11:15:27.519Z,3.35
2022-11-11T11:18:16.697Z,3.13
2022-11-11T11:21:05.931Z,3.40
2022-11-11T11:23:53.412Z,2.65
2022-11-11T11:26:48.015Z,3.25
2022-11-11T11:29:37.239Z,3.88
2022-11-11T11:32:30.888Z,3.63
2022-11-11T11:35:36.232Z,2.92
2022-11-11T11:38:24.136Z,3.05
2022-11-11T11:41:12.329Z,2.40
2022-11-11T11:43:59.932Z,2.50
2022-11-11T11:46:48.550Z,3.33
2022-11-11T11:49:48.125Z,3.28
2022-11-11T11:52:54.834Z,2.83
2022-11-11T11:55:56.387Z,3.13
2022-11-11T11:59:03.029Z,2.53
2022-11-11T12:02:07.338Z,3.40
2022-11-11T12:05:10.319Z,3.03
2022-11-11T12:10:49.138Z,2.40
2022-11-11T12:13:42.232Z,2.72
2022-11-11T12:19:23.382Z,3.15
2022-11-11T12:22:14.308Z,3.00
2022-11-11T12:25:05.002Z,2.72
2022-11-11T12:27:58.918Z,2.90
2022-11-11T12:30:52.436Z,3.00
2022-11-11T12:33:50.133Z,3.42
2022-11-11T12:36:39.797Z,2.88
2022-11-11T12:39:36.744Z,3.35
2022-11-11T12:42:33.239Z,3.25
2022-11-11T12:45:22.458Z,3.00
2022-11-11T12:48:29.009Z,2.47
2022-11-11T12:51:23.528Z,3.25
2022-11-11T12:54:49.540Z,2.80
2022-11-11T12:57:56.216Z,3.45
2022-11-11T13:01:07.525Z,2.65
2022-11-11T13:04:01.208Z,2.70
2022-11-11T13:06:57.430Z,2.40
2022-11-11T13:10:04.465Z,2.80
2022-11-11T13:12:58.210Z,3.13
2022-11-11T13:15:46.455Z,4.03
2022-11-11T13:18:42.913Z,3.28
2022-11-11T13:21:49.348Z,3.08
2022-11-11T13:24:38.037Z,2.90
2022-11-11T13:27:31.719Z,3.60
2022-11-11T13:30:49.326Z,4.18
2022-11-11T13:33:46.845Z,3.45
2022-11-11T13:36:42.283Z,3.67
2022-11-11T13:39:34.556Z,3.40
2022-11-11T13:42:26.188Z,4.30
2022-11-11T13:45:25.493Z,2.53
2022-11-11T13:48:22.189Z,2.50
2022-11-11T13:51:17.237Z,3.10
2022-11-11T13:54:07.205Z,2.75
2022-11-11T13:56:55.943Z,2.50
2022-11-11T13:59:45.834Z,2.72
2022-11-11T14:02:34.688Z,3.58
2022-11-11T14:05:24.381Z,3.75
2022-11-11T14:08:12.287Z,3.15
2022-11-11T14:11:01.754Z,3.03
2022-11-11T14:13:49.807Z,2.70
2022-11-11T14:16:37.372Z,2.42
2022-11-11T14:19:25.385Z,2.90
2022-11-11T14:22:31.401Z,2.90
2022-11-11T14:25:23.144Z,2.30
2022-11-11T14:28:29.081Z,2.42
2022-11-11T14:31:17.289Z,2.60
2022-11-11T14:34:17.110Z,2.28
2022-11-11T14:37:37.346Z,2.47
2022-11-11T14:40:32.370Z,2.15
2022-11-11T14:43:37.118Z,2.08
2022-11-11T14:46:24.950Z,2.15
2022-11-11T14:49:12.989Z,2.17
2022-11-11T14:52:01.666Z,2.10
2022-11-11T14:54:57.621Z,2.83
2022-11-11T14:57:48.884Z,3.00
2022-11-11T15:00:46.137Z,2.00
2022-11-11T15:03:36.602Z,2.50
2022-11-11T15:06:29.572Z,2.10
2022-11-11T15:09:37.634Z,1.80
2022-11-11T15:12:28.168Z,2.53
2022-11-11T15:15:21.018Z,2.25
2022-11-11T15:18:23.532Z,2.25
2022-11-11T15:21:18.805Z,2.35
2022-11-11T15:24:09.675Z,2.40
2022-11-11T15:27:16.053Z,2.42
2022-11-11T15:30:03.770Z,2.67
2022-11-11T15:32:54.007Z,2.70
2022-11-11T15:35:41.805Z,2.40
2022-11-11T15:38:30.071Z,2.97
2022-11-11T15:41:29.619Z,2.72
2022-11-11T15:44:22.273Z,3.78
2022-11-11T15:47:10.344Z,3.05
2022-11-11T15:49:58.510Z,2.70
2022-11-11T15:52:46.405Z,3.53
2022-11-11T15:55:37.372Z,2.60
2022-11-11T15:58:32.682Z,2.95
2022-11-11T16:01:21.192Z,3.10
2022-11-11T16:04:33.919Z,3.00
2022-11-11T16:07:22.315Z,3.13
2022-11-11T16:10:17.078Z,3.05
2022-11-11T16:13:20.244Z,2.72
2022-11-11T16:18:57.865Z,3.00
2022-11-11T16:21:49.642Z,2.78
2022-11-11T16:24:40.252Z,3.53
2022-11-11T16:27:31.601Z,3.10
2022-11-11T16:30:31.755Z,3.50
2022-11-11T16:33:23.855Z,3.85
2022-11-11T16:36:12.732Z,4.20
2022-11-11T16:39:15.085Z,3.92
2022-11-11T16:42:04.217Z,3.75
2022-11-11T16:44:51.813Z,3.80
2022-11-11T16:47:46.543Z,3.90
2022-11-11T16:50:34.451Z,4.85
2022-11-11T16:53:33.676Z,4.20
2022-11-11T16:56:30.100Z,4.10
2022-11-11T16:59:24.915Z,4.50
2022-11-11T17:02:22.201Z,4.87
2022-11-11T17:05:10.044Z,4.95
2022-11-11T17:07:57.980Z,4.10
2022-11-11T17:10:45.837Z,4.40
2022-11-11T17:13:36.745Z,5.22
2022-11-11T17:16:27.512Z,3.90
2022-11-11T17:19:15.211Z,5.20
2022-11-11T17:22:10.623Z,4.53
2022-11-11T17:24:58.287Z,5.20
2022-11-11T17:27:46.428Z,5.40
2022-11-11T17:30:34.318Z,6.35
2022-11-11T17:33:21.948Z,7.55
2022-11-11T17:36:10.360Z,6.05
2022-11-11T17:38:58.334Z,6.40
2022-11-11T17:41:46.054Z,6.75
2022-11-11T17:44:33.927Z,5.95
2022-11-11T17:47:21.866Z,5.80
2022-11-11T17:50:09.978Z,6.75
2022-11-11T17:52:58.606Z,6.55
2022-11-11T17:55:46.474Z,6.40
2022-11-11T17:58:39.810Z,5.95
2022-11-11T18:01:28.784Z,6.63
2022-11-11T18:04:16.802Z,6.50
2022-11-11T18:07:04.432Z,6.47
2022-11-11T18:09:52.457Z,6.22
2022-11-11T18:12:41.410Z,6.53
2022-11-11T18:15:28.929Z,5.72
2022-11-11T18:18:16.475Z,6.57
2022-11-11T18:21:04.896Z,6.93
2022-11-11T18:23:52.818Z,6.68
2022-11-11T18:26:41.110Z,5.90
2022-11-11T18:29:28.742Z,6.22
2022-11-11T18:32:16.289Z,5.97
2022-11-11T18:35:04.076Z,5.43
2022-11-11T18:37:51.789Z,6.35
2022-11-11T18:40:39.419Z,7.15
2022-11-11T18:43:27.463Z,6.75
2022-11-11T18:46:19.749Z,8.80
2022-11-11T18:49:08.003Z,8.40
2022-11-11T18:51:55.704Z,7.15
2022-11-11T18:54:43.344Z,7.50
2022-11-11T18:57:31.322Z,7.93
2022-11-11T19:00:20.278Z,7.38
2022-11-11T19:03:08.422Z,7.30
2022-11-11T19:05:56.367Z,7.75
2022-11-11T19:08:44.413Z,7.55
2022-11-11T19:11:33.815Z,8.50
2022-11-11T19:14:23.113Z,6.97
2022-11-11T19:17:11.974Z,8.07
2022-11-11T19:19:59.545Z,8.23
2022-11-11T19:22:47.081Z,8.25
2022-11-11T19:25:36.126Z,7.57
2022-11-11T19:28:23.772Z,7.55
2022-11-11T19:31:15.728Z,6.25
2022-11-11T19:34:03.923Z,6.10
2022-11-11T19:36:51.464Z,7.13
2022-11-11T19:39:39.358Z,6.60
2022-11-11T19:42:27.536Z,8.98
2022-11-11T19:45:15.340Z,11.32
2022-11-11T19:48:03.000Z,12.85
2022-11-11T19:50:50.929Z,11.52
2022-11-11T19:53:38.542Z,10.65
2022-11-11T19:56:26.209Z,9.43
2022-11-11T19:59:13.874Z,8.70
2022-11-11T20:02:01.384Z,9.60
2022-11-11T20:04:51.688Z,8.77
2022-11-11T20:07:39.467Z,9.30
2022-11-11T20:10:26.941Z,9.50
2022-11-11T20:13:14.932Z,8.77
2022-11-11T20:16:04.464Z,8.80
2022-11-11T20:18:56.282Z,8.88
2022-11-11T20:21:45.432Z,8.90
2022-11-11T20:24:37.755Z,9.65
2022-11-11T20:27:26.230Z,8.23
2022-11-11T20:30:13.769Z,7.93
2022-11-11T20:33:01.750Z,6.95
2022-11-11T20:35:49.468Z,7.88
2022-11-11T20:38:37.351Z,7.97
2022-11-11T20:41:25.387Z,8.00
2022-11-11T20:44:13.301Z,7.25
2022-11-11T20:47:01.525Z,6.95
2022-11-11T20:49:48.979Z,7.30
2022-11-11T20:52:36.524Z,8.23
2022-11-11T20:55:24.458Z,7.55
2022-11-11T20:58:12.101Z,7.35
2022-11-11T21:01:09.652Z,6.70
2022-11-11T21:03:58.610Z,6.72
2022-11-11T21:06:46.593Z,5.30
2022-11-11T21:09:34.686Z,6.72
2022-11-11T21:12:22.311Z,7.13
2022-11-11T21:15:10.162Z,6.22
2022-11-11T21:17:58.018Z,5.90
2022-11-11T21:20:45.643Z,7.43
2022-11-11T21:23:33.212Z,6.82
2022-11-11T21:26:21.583Z,6.53
2022-11-11T21:29:09.624Z,6.78
2022-11-11T21:31:57.132Z,6.85
2022-11-11T21:34:44.616Z,7.13
2022-11-11T21:37:32.413Z,6.70
2022-11-11T21:40:20.116Z,7.22
2022-11-11T21:43:07.806Z,6.47
2022-11-11T21:45:55.810Z,5.80
2022-11-11T21:48:44.086Z,6.65
2022-11-11T21:51:33.362Z,5.95
2022-11-11T21:54:21.553Z,6.30
2022-11-11T21:57:09.485Z,5.78
2022-11-11T21:59:57.465Z,5.60
2022-11-11T22:02:44.995Z,6.72
2022-11-11T22:05:32.576Z,6.85
2022-11-11T22:08:22.266Z,6.78
2022-11-11T22:11:11.759Z,8.18
2022-11-11T22:13:59.651Z,7.60
2022-11-11T22:16:47.457Z,7.82
2022-11-11T22:19:35.057Z,8.85
2022-11-11T22:22:25.685Z,8.00
2022-11-11T22:25:13.450Z,7.60
2022-11-11T22:28:01.294Z,7.65
2022-11-11T22:30:48.887Z,7.25
2022-11-11T22:33:37.058Z,6.80
2022-11-11T22:36:25.238Z,7.22
2022-11-11T22:39:12.958Z,7.18
2022-11-11T22:42:00.449Z,6.60
2022-11-11T22:44:48.284Z,6.20
2022-11-11T22:47:36.115Z,6.10
2022-11-11T22:50:23.777Z,6.88
2022-11-11T22:53:11.372Z,6.45
2022-11-11T22:56:03.039Z,6.72
2022-11-11T22:58:50.994Z,7.20
2022-11-11T23:01:38.846Z,7.20
2022-11-11T23:04:26.627Z,6.88
2022-11-11T23:07:14.264Z,7.28
2022-11-11T23:10:02.106Z,7.78
2022-11-11T23:12:51.478Z,6.90
2022-11-11T23:15:42.487Z,5.97
2022-11-11T23:18:30.632Z,6.82
2022-11-11T23:21:22.543Z,7.22
2022-11-11T23:24:11.332Z,7.43
2022-11-11T23:26:59.283Z,7.63
2022-11-11T23:29:52.088Z,7.35
2022-11-11T23:32:40.399Z,6.93
2022-11-11T23:35:28.185Z,7.70
2022-11-11T23:38:15.877Z,6.28
2022-11-11T23:41:03.560Z,7.25
2022-11-11T23:43:51.165Z,7.85
2022-11-11T23:46:38.912Z,7.10
2022-11-11T23:49:26.494Z,6.60
2022-11-11T23:52:14.338Z,6.90
2022-11-11T23:55:01.905Z,7.45
2022-11-11T23:57:49.589Z,8.05
